Time;durP1;ratioP1;P1;durP2;ratioP2;P2;SDS_P1;SDS_P2;PMS_P1;PMS_P2;Temp;Humidity;BMP_temperature;BMP_pressure;BME280_temperature;BME280_humidity;BME280_pressure;Samples;Min_cycle;Max_cycle;Signal;HPM_P1;HPM_P2
2024/01/12 00:00:06;;;;;;;46.63;18.55;;;;;;;-3.80;100.00;99513.34;2537597;29;20035;-84
2024/01/12 00:01:23;;;;;;;56.80;19.98;;;;;;;-3.76;100.00;99505.88;2544897;29;20098;-83
2024/01/12 00:02:40;;;;;;;51.95;21.02;;;;;;;-3.66;100.00;99512.28;2552161;29;20043;-82
2024/01/12 00:03:56;;;;;;;52.50;21.30;;;;;;;-3.66;100.00;99511.44;2542675;29;20505;-83
2024/01/12 00:05:13;;;;;;;54.92;19.15;;;;;;;-3.63;100.00;99512.47;2538053;29;20920;-83
2024/01/12 00:06:33;;;;;;;42.85;17.23;;;;;;;-3.60;100.00;99509.16;2544193;29;20107;-83
2024/01/12 00:07:49;;;;;;;42.25;17.08;;;;;;;-3.73;100.00;99520.50;2543702;29;20024;-83
2024/01/12 00:09:05;;;;;;;51.92;21.48;;;;;;;-3.49;100.00;99523.31;2532207;29;20409;-83
2024/01/12 00:10:23;;;;;;;49.70;19.58;;;;;;;-3.42;100.00;99519.34;2520786;29;20045;-83
2024/01/12 00:11:40;;;;;;;58.15;22.65;;;;;;;-3.45;100.00;99517.53;2535033;29;20571;-84
2024/01/12 00:12:57;;;;;;;53.10;22.08;;;;;;;-3.39;100.00;99523.75;2539902;29;20044;-84
2024/01/12 00:14:16;;;;;;;53.70;21.52;;;;;;;-3.38;100.00;99518.69;2537151;29;20056;-83
2024/01/12 00:15:32;;;;;;;47.40;19.60;;;;;;;-3.72;100.00;99518.00;2543979;29;20079;-83
2024/01/12 00:16:50;;;;;;;37.65;16.33;;;;;;;-3.77;100.00;99516.03;2539094;29;20036;-83
2024/01/12 00:18:06;;;;;;;47.10;21.58;;;;;;;-3.64;100.00;99518.34;2537406;29;20044;-83
2024/01/12 00:19:23;;;;;;;48.55;20.33;;;;;;;-3.67;100.00;99514.81;2537894;29;20385;-83
2024/01/12 00:20:44;;;;;;;54.45;21.73;;;;;;;-3.39;100.00;99506.69;2536773;29;20120;-83
2024/01/12 00:22:00;;;;;;;54.65;22.33;;;;;;;-3.32;100.00;99502.72;2537308;29;20040;-83
2024/01/12 00:23:16;;;;;;;50.22;21.38;;;;;;;-3.27;100.00;99508.94;2538344;29;20099;-84
2024/01/12 00:24:32;;;;;;;54.92;21.35;;;;;;;-3.12;100.00;99514.75;2537851;29;20156;-83
2024/01/12 00:25:49;;;;;;;56.70;22.90;;;;;;;-3.15;100.00;99509.47;2526702;29;20095;-83
2024/01/12 00:27:05;;;;;;;55.50;22.55;;;;;;;-3.12;100.00;99506.16;2522973;29;20040;-83
2024/01/12 00:28:21;;;;;;;57.65;23.20;;;;;;;-3.18;100.00;99516.16;2531598;29;20040;-84
2024/01/12 00:29:37;;;;;;;55.60;23.35;;;;;;;-3.15;100.00;99506.91;2526400;29;20045;-84
2024/01/12 00:30:54;;;;;;;54.58;21.38;;;;;;;-3.11;100.00;99502.78;2528520;29;20040;-83
2024/01/12 00:32:11;;;;;;;53.05;22.33;;;;;;;-3.27;100.00;99517.47;2536599;29;20052;-83
2024/01/12 00:33:28;;;;;;;57.60;21.95;;;;;;;-3.37;100.00;99510.19;2540229;29;20051;-84
2024/01/12 00:34:44;;;;;;;45.10;20.60;;;;;;;-3.23;100.00;99502.25;2545049;29;20204;-84
2024/01/12 00:36:00;;;;;;;56.15;21.95;;;;;;;-3.23;100.00;99513.38;2536660;29;20039;-83
2024/01/12 00:37:17;;;;;;;51.70;21.67;;;;;;;-3.14;100.00;99513.81;2526826;29;20040;-84
2024/01/12 00:38:34;;;;;;;60.70;23.92;;;;;;;-3.12;100.00;99512.19;2539139;29;20397;-84
2024/01/12 00:39:52;;;;;;;59.40;24.52;;;;;;;-3.21;100.00;99516.88;2552397;29;20047;-84
2024/01/12 00:41:09;;;;;;;60.67;23.00;;;;;;;-3.21;100.00;99519.44;2532426;29;20044;-84
2024/01/12 00:42:25;;;;;;;57.28;24.13;;;;;;;-3.07;100.00;99516.63;2530479;29;20096;-83
2024/01/12 00:43:41;;;;;;;64.65;25.52;;;;;;;-3.12;100.00;99516.41;2536460;29;20736;-84
2024/01/12 00:44:58;;;;;;;64.40;26.88;;;;;;;-3.22;100.00;99519.38;2527206;29;20084;-84
2024/01/12 00:46:16;;;;;;;77.30;29.58;;;;;;;-3.14;100.00;99531.75;2533440;29;20036;-84
2024/01/12 00:47:32;;;;;;;65.63;26.23;;;;;;;-3.21;100.00;99521.13;2527321;29;20112;-84
2024/01/12 00:48:50;;;;;;;72.40;28.35;;;;;;;-3.24;100.00;99526.09;2537606;29;20675;-84
2024/01/12 00:50:07;;;;;;;80.63;29.88;;;;;;;-3.35;100.00;99531.66;2543302;29;20112;-84
2024/01/12 00:51:23;;;;;;;75.25;30.00;;;;;;;-3.30;100.00;99525.03;2552559;29;20585;-83
2024/01/12 00:52:40;;;;;;;79.88;31.27;;;;;;;-3.35;100.00;99533.31;2550352;29;20108;-84
2024/01/12 00:53:56;;;;;;;82.88;32.67;;;;;;;-3.38;100.00;99531.47;2553902;29;20508;-83
2024/01/12 00:55:14;;;;;;;84.28;31.58;;;;;;;-3.45;100.00;99532.88;2532533;29;20048;-83
2024/01/12 00:56:32;;;;;;;78.40;31.38;;;;;;;-3.41;100.00;99534.81;2542721;29;20474;-83
2024/01/12 00:57:48;;;;;;;78.13;28.65;;;;;;;-3.45;100.00;99532.03;2550673;29;20092;-83
2024/01/12 00:59:07;;;;;;;68.65;28.95;;;;;;;-3.30;100.00;99534.38;2543821;29;20044;-83
2024/01/12 01:00:23;;;;;;;65.63;26.98;;;;;;;-3.26;100.00;99526.91;2542845;29;20120;-83
2024/01/12 01:01:39;;;;;;;72.82;26.98;;;;;;;-3.23;100.00;99531.31;2544828;29;20056;-83
2024/01/12 01:02:56;;;;;;;67.68;27.00;;;;;;;-3.19;100.00;99530.63;2544548;29;20055;-83
2024/01/12 01:04:12;;;;;;;72.28;27.73;;;;;;;-3.11;100.00;99536.09;2542416;29;20048;-83
2024/01/12 01:05:29;;;;;;;64.05;26.25;;;;;;;-3.08;100.00;99523.41;2526810;29;20057;-83
2024/01/12 01:06:45;;;;;;;66.40;27.63;;;;;;;-3.06;100.00;99523.50;2532433;29;20051;-83
2024/01/12 01:08:02;;;;;;;68.60;27.33;;;;;;;-3.08;100.00;99527.69;2532636;29;20044;-83
2024/01/12 01:09:18;;;;;;;65.43;27.90;;;;;;;-3.09;100.00;99533.63;2534475;29;20048;-83
2024/01/12 01:10:34;;;;;;;70.00;27.02;;;;;;;-3.16;100.00;99540.16;2538544;29;20039;-84
2024/01/12 01:11:52;;;;;;;69.50;26.40;;;;;;;-3.24;100.00;99539.81;2536929;29;20853;-83
2024/01/12 01:13:08;;;;;;;66.15;26.45;;;;;;;-3.29;100.00;99542.16;2532913;29;20056;-83
2024/01/12 01:14:25;;;;;;;63.63;25.80;;;;;;;-3.18;100.00;99537.50;2533950;29;20052;-84
2024/01/12 01:15:41;;;;;;;69.07;26.63;;;;;;;-3.26;100.00;99539.72;2536217;29;20072;-83
2024/01/12 01:16:57;;;;;;;62.60;27.17;;;;;;;-3.26;100.00;99526.91;2528316;29;20120;-83
2024/01/12 01:18:16;;;;;;;66.63;25.60;;;;;;;-3.15;100.00;99531.66;2532070;29;20036;-83
2024/01/12 01:19:35;;;;;;;63.58;28.92;;;;;;;-3.10;100.00;99539.56;2536727;29;20126;-83
2024/01/12 01:20:51;;;;;;;69.88;27.48;;;;;;;-3.13;100.00;99540.28;2546086;29;20080;-83
2024/01/12 01:22:08;;;;;;;60.03;25.30;;;;;;;-3.08;100.00;99528.53;2543289;29;20043;-83
2024/01/12 01:23:24;;;;;;;59.25;23.90;;;;;;;-3.06;100.00;99536.31;2548069;29;20409;-83
2024/01/12 01:24:41;;;;;;;67.47;26.20;;;;;;;-3.03;100.00;99532.22;2550969;29;20110;-83
2024/01/12 01:25:58;;;;;;;62.28;25.20;;;;;;;-2.99;100.00;99538.34;2543913;29;20080;-83
2024/01/12 01:27:15;;;;;;;58.97;24.85;;;;;;;-2.98;100.00;99535.84;2543244;29;20040;-83
2024/01/12 01:28:31;;;;;;;62.88;25.95;;;;;;;-3.15;100.00;99541.91;2542353;29;20508;-83
2024/01/12 01:29:47;;;;;;;65.88;26.60;;;;;;;-3.15;100.00;99547.03;2536400;29;20791;-83
2024/01/12 01:31:04;;;;;;;49.45;20.73;;;;;;;-3.41;100.00;99554.41;2545221;29;20028;-83
2024/01/12 01:32:20;;;;;;;54.85;25.40;;;;;;;-3.19;100.00;99546.00;2552217;29;20104;-83
2024/01/12 01:33:36;;;;;;;60.95;24.38;;;;;;;-3.12;100.00;99549.72;2532369;29;20053;-83
2024/01/12 01:34:53;;;;;;;69.47;25.45;;;;;;;-3.16;100.00;99550.41;2537855;29;20070;-83
2024/01/12 01:36:09;;;;;;;62.38;24.90;;;;;;;-3.14;100.00;99547.09;2537567;29;20095;-83
2024/01/12 01:37:25;;;;;;;60.40;25.67;;;;;;;-3.05;100.00;99554.31;2542294;29;20079;-83
2024/01/12 01:38:42;;;;;;;60.38;25.20;;;;;;;-3.02;100.00;99556.13;2543417;29;20096;-83
2024/01/12 01:40:01;;;;;;;63.97;24.83;;;;;;;-3.03;100.00;99556.94;2544484;29;20032;-83
2024/01/12 01:41:17;;;;;;;60.45;24.50;;;;;;;-3.00;100.00;99555.38;2538214;29;20048;-83
2024/01/12 01:42:34;;;;;;;60.75;24.33;;;;;;;-3.15;100.00;99554.72;2534616;29;20107;-83
2024/01/12 01:43:51;;;;;;;62.78;25.40;;;;;;;-3.06;100.00;99559.38;2536496;29;20103;-83
2024/01/12 01:45:08;;;;;;;61.25;24.13;;;;;;;-2.95;100.00;99559.84;2543504;29;20035;-83
2024/01/12 01:46:25;;;;;;;60.35;24.17;;;;;;;-2.94;100.00;99549.66;2534380;29;20048;-83
2024/01/12 01:47:42;;;;;;;60.22;24.55;;;;;;;-2.98;100.00;99556.34;2540768;29;20503;-83
2024/01/12 01:48:59;;;;;;;60.28;25.60;;;;;;;-3.08;100.00;99558.44;2532022;29;20056;-83
2024/01/12 01:50:16;;;;;;;57.42;21.20;;;;;;;-3.12;100.00;99554.84;2536983;29;20508;-83
2024/01/12 01:51:33;;;;;;;52.05;21.38;;;;;;;-3.31;100.00;99560.81;2522253;29;20060;-83
2024/01/12 01:52:49;;;;;;;55.75;22.50;;;;;;;-3.06;100.00;99560.25;2533098;29;20512;-83
2024/01/12 01:54:06;;;;;;;60.95;22.90;;;;;;;-2.87;100.00;99555.94;2543251;29;20076;-83
2024/01/12 01:55:23;;;;;;;61.83;23.63;;;;;;;-3.07;100.00;99557.63;2536058;29;20088;-83
2024/01/12 01:56:40;;;;;;;66.32;23.65;;;;;;;-2.93;100.00;99547.97;2542982;29;20110;-83
2024/01/12 01:57:59;;;;;;;59.88;24.65;;;;;;;-2.89;100.00;99549.88;2543034;29;20040;-83
2024/01/12 01:59:15;;;;;;;53.72;22.95;;;;;;;-2.94;100.00;99543.66;2541996;29;20107;-83
2024/01/12 02:00:32;;;;;;;57.50;23.15;;;;;;;-2.92;100.00;99547.19;2540996;29;20508;-83
2024/01/12 02:01:48;;;;;;;55.13;22.42;;;;;;;-3.25;100.00;99553.41;2543849;29;20036;-83
2024/01/12 02:03:06;;;;;;;54.15;23.50;;;;;;;-3.02;100.00;99548.44;2551611;29;20040;-83
2024/01/12 02:04:22;;;;;;;55.70;22.73;;;;;;;-3.01;100.00;99545.06;2547609;29;20023;-83
2024/01/12 02:05:40;;;;;;;61.95;24.55;;;;;;;-3.14;100.00;99543.66;2553483;29;20047;-83
2024/01/12 02:06:57;;;;;;;62.75;22.60;;;;;;;-3.19;100.00;99534.91;2533472;29;20040;-83
2024/01/12 02:08:14;;;;;;;57.40;24.83;;;;;;;-3.15;100.00;99539.34;2526094;29;20033;-83
2024/01/12 02:09:34;;;;;;;57.53;24.45;;;;;;;-3.24;100.00;99534.69;2531151;29;20420;-83
2024/01/12 02:10:52;;;;;;;66.45;25.00;;;;;;;-3.15;100.00;99529.94;2543214;29;20076;-83
2024/01/12 02:12:08;;;;;;;61.30;25.05;;;;;;;-3.23;100.00;99527.84;2551691;29;20052;-83
2024/01/12 02:13:25;;;;;;;59.40;24.55;;;;;;;-3.08;100.00;99532.81;2548423;29;20036;-83
2024/01/12 02:14:41;;;;;;;63.90;24.75;;;;;;;-2.99;100.00;99534.09;2531709;29;20052;-83
2024/01/12 02:15:58;;;;;;;60.78;25.88;;;;;;;-2.86;100.00;99524.38;2541881;29;20532;-83
2024/01/12 02:17:15;;;;;;;61.20;25.92;;;;;;;-3.00;100.00;99528.91;2549277;29;20048;-83
2024/01/12 02:18:31;;;;;;;63.05;25.80;;;;;;;-2.91;100.00;99526.72;2543423;29;20048;-83
2024/01/12 02:19:48;;;;;;;64.28;25.20;;;;;;;-3.07;100.00;99534.56;2538610;29;20083;-83
2024/01/12 02:21:05;;;;;;;52.88;22.83;;;;;;;-2.96;100.00;99529.91;2535913;29;20140;-83
2024/01/12 02:22:21;;;;;;;57.70;24.38;;;;;;;-2.86;100.00;99529.50;2535638;29;20107;-83
2024/01/12 02:23:39;;;;;;;46.58;20.00;;;;;;;-3.18;100.00;99524.69;2538056;29;20584;-83
2024/01/12 02:24:55;;;;;;;51.75;18.60;;;;;;;-3.13;100.00;99530.03;2538203;29;20040;-83
2024/01/12 02:26:11;;;;;;;54.80;21.42;;;;;;;-3.08;100.00;99522.56;2536587;29;20052;-83
2024/01/12 02:27:28;;;;;;;54.78;22.00;;;;;;;-3.16;100.00;99525.63;2533588;29;20493;-83
2024/01/12 02:28:45;;;;;;;45.13;19.02;;;;;;;-2.88;100.00;99521.72;2530320;29;20146;-83
2024/01/12 02:30:01;;;;;;;59.33;22.33;;;;;;;-2.98;100.00;99524.72;2547433;29;20043;-83
2024/01/12 02:31:18;;;;;;;54.35;23.15;;;;;;;-2.97;100.00;99516.22;2550091;29;20082;-83
2024/01/12 02:32:34;;;;;;;56.00;22.40;;;;;;;-2.96;100.00;99523.09;2551689;29;20051;-83
2024/01/12 02:33:50;;;;;;;59.42;22.48;;;;;;;-3.10;100.00;99527.59;2541508;29;20524;-83
2024/01/12 02:35:06;;;;;;;58.35;23.10;;;;;;;-3.14;100.00;99533.41;2543375;29;20035;-83
2024/01/12 02:36:26;;;;;;;54.35;22.50;;;;;;;-3.08;100.00;99525.97;2542235;29;20055;-83
2024/01/12 02:37:44;;;;;;;58.53;23.00;;;;;;;-3.02;100.00;99526.28;2543694;29;20084;-83
2024/01/12 02:39:01;;;;;;;57.58;22.25;;;;;;;-2.99;100.00;99526.41;2537493;29;20528;-83
2024/01/12 02:40:18;;;;;;;50.72;22.55;;;;;;;-3.05;100.00;99521.03;2524255;29;20639;-82
2024/01/12 02:41:34;;;;;;;53.63;22.25;;;;;;;-2.85;100.00;99521.00;2539081;29;20048;-83
2024/01/12 02:42:50;;;;;;;54.80;22.10;;;;;;;-2.89;100.00;99524.25;2543860;29;20043;-82
2024/01/12 02:44:06;;;;;;;44.70;19.77;;;;;;;-3.08;100.00;99518.28;2541042;29;20489;-82
2024/01/12 02:45:23;;;;;;;47.50;19.50;;;;;;;-3.06;100.00;99518.38;2549050;29;20110;-83
2024/01/12 02:46:40;;;;;;;55.47;22.88;;;;;;;-3.08;100.00;99520.84;2551481;29;20055;-82
2024/01/12 02:47:57;;;;;;;52.67;20.23;;;;;;;-2.85;100.00;99521.00;2535323;29;20031;-83
2024/01/12 02:49:13;;;;;;;48.15;19.83;;;;;;;-2.96;100.00;99519.66;2532506;29;20564;-84
2024/01/12 02:50:29;;;;;;;47.63;19.70;;;;;;;-2.95;100.00;99521.41;2528978;29;20269;-83
2024/01/12 02:51:46;;;;;;;47.30;20.52;;;;;;;-2.82;100.00;99516.00;2527122;29;20605;-83
2024/01/12 02:53:02;;;;;;;32.92;12.73;;;;;;;-3.10;100.00;99517.34;2537800;29;20036;-82
2024/01/12 02:54:18;;;;;;;47.10;18.77;;;;;;;-3.10;100.00;99521.63;2531194;29;20052;-83
2024/01/12 02:55:34;;;;;;;35.85;15.82;;;;;;;-3.37;100.00;99528.13;2531416;29;20088;-83
2024/01/12 02:56:50;;;;;;;53.70;19.65;;;;;;;-3.09;100.00;99523.38;2529684;29;20107;-83
2024/01/12 02:58:07;;;;;;;47.83;19.23;;;;;;;-3.28;100.00;99523.41;2541564;29;20087;-83
2024/01/12 02:59:23;;;;;;;44.53;17.25;;;;;;;-3.20;100.00;99530.59;2545214;29;20032;-83
2024/01/12 03:00:39;;;;;;;44.92;15.25;;;;;;;-3.38;100.00;99531.47;2547085;29;20103;-83
2024/01/12 03:01:55;;;;;;;47.13;16.15;;;;;;;-3.19;100.00;99516.97;2534020;29;20100;-83
2024/01/12 03:03:13;;;;;;;49.15;19.60;;;;;;;-3.03;100.00;99518.50;2538431;29;20088;-83
2024/01/12 03:04:29;;;;;;;39.90;15.70;;;;;;;-3.22;100.00;99530.50;2553424;29;20496;-83
2024/01/12 03:05:47;;;;;;;48.33;18.92;;;;;;;-3.10;100.00;99530.16;2550985;29;20464;-83
2024/01/12 03:07:04;;;;;;;48.15;20.75;;;;;;;-2.90;100.00;99531.03;2543446;29;20160;-83
2024/01/12 03:08:20;;;;;;;55.58;19.60;;;;;;;-3.05;100.00;99530.38;2528867;29;20044;-83
2024/01/12 03:09:36;;;;;;;44.80;18.27;;;;;;;-3.13;100.00;99535.16;2538618;29;20643;-83
2024/01/12 03:10:53;;;;;;;48.72;18.30;;;;;;;-3.04;100.00;99527.00;2538133;29;20047;-83
2024/01/12 03:12:09;;;;;;;50.10;18.05;;;;;;;-3.02;100.00;99521.16;2544355;29;20040;-83
2024/01/12 03:13:26;;;;;;;42.92;16.23;;;;;;;-2.87;100.00;99523.47;2549615;29;20142;-83
2024/01/12 03:14:42;;;;;;;47.88;19.42;;;;;;;-2.77;100.00;99524.78;2534744;29;20048;-83
2024/01/12 03:15:58;;;;;;;47.83;16.77;;;;;;;-2.81;100.00;99520.31;2534223;29;20420;-83
2024/01/12 03:17:14;;;;;;;27.55;11.77;;;;;;;-3.15;100.00;99535.06;2547925;29;20052;-83
2024/01/12 03:18:32;;;;;;;46.63;18.48;;;;;;;-3.03;100.00;99521.97;2533269;29;20108;-83
2024/01/12 03:19:51;;;;;;;46.97;18.80;;;;;;;-2.81;100.00;99522.00;2539821;29;20031;-83
2024/01/12 03:21:07;;;;;;;33.15;15.10;;;;;;;-3.10;100.00;99529.31;2553762;29;20876;-83
2024/01/12 03:22:23;;;;;;;40.35;17.02;;;;;;;-3.02;100.00;99538.19;2533214;29;20044;-83
2024/01/12 03:23:39;;;;;;;49.80;17.95;;;;;;;-3.04;100.00;99529.56;2531373;29;20566;-83
2024/01/12 03:24:55;;;;;;;43.88;17.90;;;;;;;-3.07;100.00;99534.56;2545278;29;20626;-83
2024/01/12 03:26:12;;;;;;;24.30;12.00;;;;;;;-3.13;100.00;99530.03;2536957;29;20043;-83
2024/01/12 03:27:28;;;;;;;37.83;15.48;;;;;;;-3.26;100.00;99531.19;2549182;29;20031;-83
2024/01/12 03:28:45;;;;;;;43.70;17.08;;;;;;;-3.23;100.00;99535.53;2542672;29;20043;-83
2024/01/12 03:30:02;;;;;;;37.42;15.25;;;;;;;-3.12;100.00;99537.81;2537645;29;20524;-83
2024/01/12 03:31:19;;;;;;;42.28;16.33;;;;;;;-3.15;100.00;99541.91;2529505;29;20397;-83
2024/01/12 03:32:37;;;;;;;35.22;14.30;;;;;;;-3.30;100.00;99542.97;2537611;29;20036;-83
2024/01/12 03:33:54;;;;;;;29.77;12.20;;;;;;;-3.38;100.00;99541.72;2548137;29;20784;-83
2024/01/12 03:35:12;;;;;;;35.72;13.95;;;;;;;-3.26;100.00;99537.16;2543494;29;20377;-83
2024/01/12 03:36:29;;;;;;;26.45;12.10;;;;;;;-3.47;100.00;99543.88;2543522;29;20615;-83
2024/01/12 03:37:45;;;;;;;34.80;14.07;;;;;;;-3.36;100.00;99534.97;2531941;29;20048;-83
2024/01/12 03:39:02;;;;;;;42.38;16.65;;;;;;;-3.37;100.00;99534.94;2538918;29;20099;-83
2024/01/12 03:40:19;;;;;;;25.73;9.07;;;;;;;-3.53;100.00;99543.59;2543406;29;20061;-83
2024/01/12 03:41:35;;;;;;;45.45;17.58;;;;;;;-3.10;100.00;99537.00;2542672;29;20051;-83
2024/01/12 03:42:51;;;;;;;33.75;13.82;;;;;;;-3.26;100.00;99536.31;2545266;29;20095;-83
2024/01/12 03:44:08;;;;;;;42.50;17.23;;;;;;;-3.13;100.00;99535.16;2542034;29;20032;-83
2024/01/12 03:45:24;;;;;;;45.10;17.88;;;;;;;-3.08;100.00;99536.22;2517039;29;20104;-83
2024/01/12 03:46:41;;;;;;;44.80;16.88;;;;;;;-3.21;100.00;99536.50;2525181;29;20071;-83
2024/01/12 03:47:58;;;;;;;43.80;17.92;;;;;;;-3.11;100.00;99538.66;2543581;29;20507;-84
2024/01/12 03:49:14;;;;;;;45.33;17.42;;;;;;;-3.14;100.00;99546.22;2543330;29;20043;-84
2024/01/12 03:50:30;;;;;;;47.03;17.35;;;;;;;-3.12;100.00;99537.81;2543118;29;20040;-83
2024/01/12 03:51:53;;;;;;;46.03;15.43;;;;;;;-3.09;100.00;99541.31;2543959;29;20060;-84
2024/01/12 03:53:13;;;;;;;34.88;12.35;;;;;;;-3.46;100.00;99541.38;2534296;29;20056;-83
2024/01/12 03:54:30;;;;;;;36.78;15.18;;;;;;;-3.30;100.00;99544.63;2532996;29;20126;-84
2024/01/12 03:55:46;;;;;;;38.40;15.73;;;;;;;-3.28;100.00;99541.34;2528505;29;20535;-82
2024/01/12 03:57:02;;;;;;;44.60;17.33;;;;;;;-3.09;100.00;99542.16;2542251;29;20404;-83
2024/01/12 03:58:18;;;;;;;46.13;16.75;;;;;;;-3.10;100.00;99542.13;2545872;29;20036;-83
2024/01/12 03:59:35;;;;;;;43.97;17.45;;;;;;;-3.13;100.00;99540.28;2537728;29;20617;-83
2024/01/12 04:00:52;;;;;;;42.92;16.10;;;;;;;-2.94;100.00;99538.53;2539761;29;20043;-82
2024/01/12 04:02:08;;;;;;;39.85;14.73;;;;;;;-3.23;100.00;99545.78;2544235;29;20480;-84
2024/01/12 04:03:26;;;;;;;31.15;12.68;;;;;;;-3.19;100.00;99545.16;2533194;29;20052;-84
2024/01/12 04:04:42;;;;;;;37.28;15.75;;;;;;;-3.01;100.00;99534.81;2532995;29;20583;-84
2024/01/12 04:05:59;;;;;;;30.25;13.13;;;;;;;-2.99;100.00;99538.34;2536413;29;20040;-84
2024/01/12 04:07:15;;;;;;;40.03;14.77;;;;;;;-2.79;100.00;99539.22;2538016;29;20107;-84
2024/01/12 04:08:31;;;;;;;24.42;11.50;;;;;;;-2.95;100.00;99531.66;2537527;29;20512;-84
2024/01/12 04:09:48;;;;;;;39.15;15.07;;;;;;;-2.79;100.00;99531.53;2537723;29;20048;-84
2024/01/12 04:11:05;;;;;;;32.35;12.48;;;;;;;-2.72;100.00;99533.53;2536184;29;20472;-82
2024/01/12 04:12:23;;;;;;;30.35;12.38;;;;;;;-2.99;100.00;99533.22;2542855;29;20048;-84
2024/01/12 04:13:39;;;;;;;33.22;14.45;;;;;;;-2.88;100.00;99536.25;2540055;29;20412;-83
2024/01/12 04:14:55;;;;;;;21.92;10.82;;;;;;;-3.14;100.00;99533.41;2537158;29;20064;-84
2024/01/12 04:16:11;;;;;;;40.40;15.57;;;;;;;-2.92;100.00;99529.25;2538604;29;20056;-84
2024/01/12 04:17:29;;;;;;;36.08;13.85;;;;;;;-3.10;100.00;99530.16;2537979;29;20847;-84
2024/01/12 04:18:45;;;;;;;37.17;15.45;;;;;;;-2.75;100.00;99535.97;2544556;29;20091;-84
2024/01/12 04:20:01;;;;;;;34.63;14.55;;;;;;;-2.82;100.00;99533.09;2542576;29;20099;-84
2024/01/12 04:21:17;;;;;;;36.47;14.13;;;;;;;-2.74;100.00;99536.81;2537178;29;20048;-84
2024/01/12 04:22:34;;;;;;;36.95;14.45;;;;;;;-2.85;100.00;99529.56;2545716;29;20399;-84
2024/01/12 04:23:50;;;;;;;39.20;16.10;;;;;;;-2.75;100.00;99533.41;2550702;29;20044;-84
2024/01/12 04:25:07;;;;;;;39.58;15.65;;;;;;;-2.62;100.00;99529.66;2533747;29;20048;-84
2024/01/12 04:26:23;;;;;;;34.38;14.98;;;;;;;-2.88;100.00;99526.84;2538010;29;20579;-83
2024/01/12 04:27:40;;;;;;;40.92;16.38;;;;;;;-2.64;100.00;99527.88;2545179;29;20032;-82
2024/01/12 04:28:57;;;;;;;40.20;16.45;;;;;;;-2.70;100.00;99520.78;2543343;29;20048;-82
2024/01/12 04:30:14;;;;;;;42.70;15.95;;;;;;;-2.76;100.00;99529.09;2538461;29;20036;-84
2024/01/12 04:31:30;;;;;;;41.97;16.75;;;;;;;-2.82;100.00;99525.38;2537563;29;20107;-84
2024/01/12 04:32:47;;;;;;;40.00;15.80;;;;;;;-2.80;100.00;99522.06;2537345;29;20048;-83
2024/01/12 04:34:03;;;;;;;42.63;15.63;;;;;;;-2.70;100.00;99523.34;2537937;29;20043;-83
2024/01/12 04:35:19;;;;;;;35.88;15.80;;;;;;;-2.87;100.00;99522.63;2542518;29;20174;-83
2024/01/12 04:36:37;;;;;;;37.30;15.10;;;;;;;-2.73;100.00;99520.63;2533882;29;20048;-83
2024/01/12 04:37:53;;;;;;;43.72;15.55;;;;;;;-2.58;100.00;99523.00;2526620;29;20044;-83
2024/01/12 04:39:10;;;;;;;33.92;14.07;;;;;;;-2.41;100.00;99511.75;2537341;29;20493;-82
2024/01/12 04:40:26;;;;;;;37.42;15.48;;;;;;;-2.51;100.00;99517.31;2542100;29;20047;-83
2024/01/12 04:41:42;;;;;;;37.58;14.55;;;;;;;-2.47;100.00;99513.19;2536678;29;20044;-82
2024/01/12 04:42:58;;;;;;;31.63;13.38;;;;;;;-2.37;100.00;99514.47;2539166;29;20028;-82
2024/01/12 04:44:15;;;;;;;38.10;15.07;;;;;;;-2.46;100.00;99513.25;2548278;29;20798;-82
2024/01/12 04:45:31;;;;;;;35.38;12.95;;;;;;;-2.67;100.00;99520.03;2543658;29;20035;-82
2024/01/12 04:46:49;;;;;;;41.47;15.00;;;;;;;-2.52;100.00;99514.69;2544909;29;20064;-82
2024/01/12 04:48:06;;;;;;;35.83;14.65;;;;;;;-2.29;100.00;99513.06;2552136;29;20296;-82
2024/01/12 04:49:22;;;;;;;37.95;15.57;;;;;;;-2.27;100.00;99506.31;2543196;29;20128;-83
2024/01/12 04:50:38;;;;;;;40.55;15.05;;;;;;;-2.55;100.00;99512.84;2527387;29;20056;-83
2024/01/12 04:51:55;;;;;;;40.33;15.77;;;;;;;-2.48;100.00;99514.00;2531024;29;20044;-83
2024/01/12 04:53:12;;;;;;;43.83;14.68;;;;;;;-2.44;100.00;99519.31;2542752;29;20095;-83
2024/01/12 04:54:29;;;;;;;30.45;13.30;;;;;;;-2.30;100.00;99517.34;2542905;29;20099;-82
2024/01/12 04:55:49;;;;;;;32.97;13.68;;;;;;;-2.64;100.00;99520.19;2545677;29;20099;-82
2024/01/12 04:57:05;;;;;;;39.50;15.10;;;;;;;-2.45;100.00;99512.44;2553493;29;20374;-84
2024/01/12 04:58:25;;;;;;;40.97;15.38;;;;;;;-2.39;100.00;99508.38;2543059;29;20043;-83
2024/01/12 04:59:42;;;;;;;34.13;14.88;;;;;;;-2.45;100.00;99515.00;2542593;29;20032;-82
2024/01/12 05:00:59;;;;;;;39.20;14.70;;;;;;;-2.48;100.00;99514.00;2542537;29;20032;-83
2024/01/12 05:02:15;;;;;;;37.30;15.52;;;;;;;-2.34;100.00;99512.00;2538932;29;20452;-84
2024/01/12 05:03:31;;;;;;;41.30;15.25;;;;;;;-2.35;100.00;99506.00;2526570;29;20408;-84
2024/01/12 05:04:47;;;;;;;35.60;15.57;;;;;;;-2.41;100.00;99509.19;2520758;29;20581;-84
2024/01/12 05:06:04;;;;;;;30.08;13.15;;;;;;;-2.35;100.00;99512.81;2533826;29;20135;-84
2024/01/12 05:07:20;;;;;;;38.42;15.25;;;;;;;-2.45;100.00;99511.53;2536384;29;20044;-84
2024/01/12 05:08:37;;;;;;;35.13;14.20;;;;;;;-2.47;100.00;99510.63;2543206;29;20440;-82
2024/01/12 05:09:53;;;;;;;36.17;14.63;;;;;;;-2.39;100.00;99516.06;2544654;29;20107;-83
2024/01/12 05:11:10;;;;;;;33.00;14.00;;;;;;;-2.48;100.00;99517.44;2541333;29;20135;-83
2024/01/12 05:12:27;;;;;;;32.00;13.18;;;;;;;-2.45;100.00;99515.00;2537263;29;20107;-83
2024/01/12 05:13:44;;;;;;;36.03;14.82;;;;;;;-2.45;100.00;99512.44;2544831;29;20035;-83
2024/01/12 05:15:01;;;;;;;33.25;13.18;;;;;;;-2.41;100.00;99513.44;2553066;29;20119;-83
2024/01/12 05:16:17;;;;;;;36.30;14.35;;;;;;;-2.30;100.00;99514.78;2537827;29;20084;-83
2024/01/12 05:17:34;;;;;;;32.40;11.85;;;;;;;-2.62;100.00;99514.28;2532095;29;20052;-82
2024/01/12 05:18:50;;;;;;;36.40;14.05;;;;;;;-2.48;100.00;99507.19;2526775;29;20107;-83
2024/01/12 05:20:09;;;;;;;32.25;12.88;;;;;;;-2.50;100.00;99507.94;2530545;29;20044;-83
2024/01/12 05:21:26;;;;;;;29.15;12.48;;;;;;;-2.44;100.00;99509.06;2547744;29;20384;-83
2024/01/12 05:22:42;;;;;;;34.83;13.77;;;;;;;-2.25;100.00;99509.81;2547296;29;20051;-83
2024/01/12 05:23:58;;;;;;;33.53;12.40;;;;;;;-2.39;100.00;99510.94;2540388;29;20083;-83
2024/01/12 05:25:15;;;;;;;30.80;13.60;;;;;;;-2.44;100.00;99508.19;2535148;29;20591;-84
2024/01/12 05:26:34;;;;;;;30.13;13.32;;;;;;;-2.38;100.00;99502.41;2542714;29;20146;-83
2024/01/12 05:27:52;;;;;;;34.95;13.60;;;;;;;-2.27;100.00;99502.06;2535447;29;20484;-83
2024/01/12 05:29:10;;;;;;;36.97;13.35;;;;;;;-2.45;100.00;99509.88;2527751;29;20048;-82
2024/01/12 05:30:26;;;;;;;35.10;13.32;;;;;;;-2.36;100.00;99509.38;2534150;29;20036;-83
2024/01/12 05:31:45;;;;;;;36.25;14.07;;;;;;;-2.30;100.00;99507.09;2539849;29;20893;-83
2024/01/12 05:33:01;;;;;;;36.70;13.43;;;;;;;-2.27;100.00;99507.19;2549909;29;20032;-84
2024/01/12 05:34:18;;;;;;;31.15;12.82;;;;;;;-2.32;100.00;99506.13;2552781;29;20139;-83
2024/01/12 05:35:37;;;;;;;31.77;13.50;;;;;;;-2.24;100.00;99506.41;2542938;29;20032;-83
2024/01/12 05:36:54;;;;;;;29.90;13.00;;;;;;;-2.28;100.00;99504.56;2536772;29;20040;-83
2024/01/12 05:38:10;;;;;;;30.38;12.65;;;;;;;-2.20;100.00;99503.19;2522973;29;20049;-84
2024/01/12 05:39:27;;;;;;;33.22;13.93;;;;;;;-2.19;100.00;99504.94;2531008;29;20039;-85
2024/01/12 05:40:47;;;;;;;31.77;13.52;;;;;;;-2.14;100.00;99505.13;2547246;29;20184;-83
2024/01/12 05:42:03;;;;;;;33.65;13.60;;;;;;;-2.11;100.00;99501.78;2552806;29;20044;-84
2024/01/12 05:43:27;;;;;;;35.67;14.80;;;;;;;-2.48;100.00;99501.16;2550575;29;20047;-84
2024/01/12 05:44:44;;;;;;;36.63;14.98;;;;;;;-2.47;100.00;99506.38;2551562;29;20442;-83
2024/01/12 05:46:00;;;;;;;33.20;13.90;;;;;;;-2.43;100.00;99509.94;2543415;29;20035;-84
2024/01/12 05:47:16;;;;;;;33.35;14.35;;;;;;;-2.61;100.00;99512.63;2548612;29;20035;-84
2024/01/12 05:48:33;;;;;;;30.83;14.13;;;;;;;-2.71;100.00;99513.91;2552819;29;20031;-84